createdAt,value
2018-07-31T05:15:04.164Z,77.83
2018-07-31T05:17:34.365Z,77.31
2018-07-31T05:20:04.759Z,76.81
2018-07-31T05:22:34.520Z,75.83
2018-07-31T05:25:04.278Z,76.77
2018-07-31T05:27:34.404Z,75.50
2018-07-31T05:30:04.110Z,75.38
2018-07-31T05:32:34.549Z,75.69
2018-07-31T05:35:04.762Z,75.57
2018-07-31T05:37:35.091Z,74.86
2018-07-31T05:40:05.685Z,77.19
2018-07-31T05:42:35.751Z,78.39
2018-07-31T05:45:05.993Z,77.48
2018-07-31T05:47:36.329Z,77.69
2018-07-31T05:50:07.452Z,76.62
2018-07-31T05:52:37.264Z,76.87
2018-07-31T05:55:07.089Z,76.03
2018-07-31T05:57:37.208Z,77.70
2018-07-31T06:00:07.883Z,78.72
2018-07-31T06:02:37.611Z,77.43
2018-07-31T06:05:07.771Z,76.79
2018-07-31T06:07:37.474Z,76.92
2018-07-31T06:10:08.518Z,76.88
2018-07-31T06:12:38.423Z,76.89
2018-07-31T06:15:09.260Z,76.26
2018-07-31T06:17:38.899Z,78.25
2018-07-31T06:20:13.862Z,77.75
2018-07-31T06:22:44.572Z,77.73
2018-07-31T06:25:14.793Z,77.31
2018-07-31T06:27:45.710Z,77.00
2018-07-31T06:30:16.002Z,76.65
2018-07-31T06:32:46.070Z,77.52
2018-07-31T06:35:16.440Z,76.88
2018-07-31T06:37:46.475Z,75.39
2018-07-31T06:40:16.245Z,74.96
2018-07-31T06:42:45.973Z,75.05
2018-07-31T06:45:15.685Z,77.59
2018-07-31T06:47:45.354Z,78.49
2018-07-31T06:50:15.150Z,78.83
2018-07-31T06:52:44.958Z,77.20
2018-07-31T06:55:14.651Z,76.81
2018-07-31T06:57:44.361Z,75.47
2018-07-31T07:00:14.296Z,76.12
2018-07-31T07:02:43.891Z,76.18
2018-07-31T07:05:13.640Z,75.78
2018-07-31T07:07:43.759Z,74.75
2018-07-31T07:10:13.572Z,74.22
2018-07-31T07:12:43.321Z,73.28
2018-07-31T07:15:13.400Z,72.99
2018-07-31T07:17:43.179Z,72.44
2018-07-31T07:20:12.931Z,72.91
2018-07-31T07:22:42.926Z,72.24
2018-07-31T07:25:12.763Z,72.64
2018-07-31T07:27:43.033Z,73.75
2018-07-31T07:30:12.831Z,72.84
2018-07-31T07:32:42.539Z,70.52
2018-07-31T07:35:12.175Z,69.60
2018-07-31T07:37:41.944Z,68.85
2018-07-31T07:40:11.744Z,68.41
2018-07-31T07:42:41.441Z,69.93
2018-07-31T07:45:11.154Z,69.28
2018-07-31T07:47:40.788Z,67.74
2018-07-31T07:50:10.516Z,67.51
2018-07-31T07:52:40.195Z,68.03
2018-07-31T07:55:10.161Z,67.56
2018-07-31T07:57:40.248Z,66.74
2018-07-31T08:00:10.950Z,66.21
2018-07-31T08:02:40.902Z,65.96
2018-07-31T08:05:10.564Z,66.63
2018-07-31T08:07:40.627Z,65.65
2018-07-31T08:10:10.423Z,65.50
2018-07-31T08:12:40.218Z,65.03
2018-07-31T08:15:09.999Z,65.25
2018-07-31T08:17:39.694Z,65.10
2018-07-31T08:20:09.740Z,65.23
2018-07-31T08:22:39.600Z,65.79
2018-07-31T08:25:09.323Z,65.81
2018-07-31T08:27:39.552Z,66.42
2018-07-31T08:30:09.315Z,65.65
2018-07-31T08:32:39.515Z,65.71
2018-07-31T08:35:09.281Z,63.10
2018-07-31T08:37:39.428Z,64.02
2018-07-31T08:40:09.171Z,63.64
2018-07-31T08:42:38.924Z,64.41
2018-07-31T08:45:09.194Z,63.61
2018-07-31T08:47:39.063Z,64.20
2018-07-31T08:50:09.101Z,63.55
2018-07-31T08:52:38.818Z,62.93
2018-07-31T08:55:08.936Z,63.15
2018-07-31T08:57:38.629Z,62.30
2018-07-31T09:00:09.872Z,62.54
2018-07-31T09:02:39.550Z,62.81
2018-07-31T09:05:09.618Z,60.75
2018-07-31T09:07:39.813Z,60.48
2018-07-31T09:10:09.449Z,61.52
2018-07-31T09:12:39.169Z,61.08
2018-07-31T09:15:08.907Z,62.48
2018-07-31T09:17:38.675Z,61.99
2018-07-31T09:20:08.699Z,62.33
2018-07-31T09:22:38.501Z,62.21
2018-07-31T09:25:08.227Z,61.42
2018-07-31T09:27:37.842Z,61.75
2018-07-31T09:30:07.639Z,61.00
2018-07-31T09:32:42.554Z,62.98
2018-07-31T09:35:12.419Z,63.49
2018-07-31T09:37:42.246Z,62.88
2018-07-31T09:40:12.068Z,62.02
2018-07-31T09:42:41.979Z,60.03
2018-07-31T09:45:11.932Z,60.59
2018-07-31T09:47:41.605Z,59.89
2018-07-31T09:50:11.214Z,60.44
2018-07-31T09:52:40.868Z,59.40
2018-07-31T09:55:10.613Z,58.95
2018-07-31T09:57:40.615Z,59.25
2018-07-31T10:00:10.522Z,59.67
2018-07-31T10:02:40.352Z,58.90
2018-07-31T10:05:10.098Z,60.18
2018-07-31T10:07:39.903Z,60.34
2018-07-31T10:10:09.716Z,61.65
2018-07-31T10:12:39.522Z,59.73
2018-07-31T10:15:09.448Z,58.11
2018-07-31T10:17:39.163Z,58.23
2018-07-31T10:20:08.905Z,58.78
2018-07-31T10:22:38.564Z,59.78
2018-07-31T10:25:08.664Z,60.11
2018-07-31T10:27:38.365Z,59.81
2018-07-31T10:30:08.671Z,60.27
2018-07-31T10:32:38.324Z,58.68
2018-07-31T10:35:09.350Z,58.83
2018-07-31T10:37:39.496Z,56.30
2018-07-31T10:40:09.685Z,57.11
2018-07-31T10:42:39.514Z,57.43
2018-07-31T10:45:09.207Z,57.12
2018-07-31T10:47:38.788Z,56.81
2018-07-31T10:50:08.554Z,56.87
2018-07-31T10:52:38.450Z,56.19
2018-07-31T10:55:08.314Z,57.62
2018-07-31T10:57:38.018Z,58.20
2018-07-31T11:00:08.139Z,57.20
2018-07-31T11:02:38.191Z,57.22
2018-07-31T11:05:08.328Z,58.23
2018-07-31T11:07:38.540Z,58.61
2018-07-31T11:10:08.616Z,56.33
2018-07-31T11:12:38.777Z,55.77
2018-07-31T11:15:08.444Z,57.10
2018-07-31T11:17:39.027Z,58.55
2018-07-31T11:20:09.198Z,57.96
2018-07-31T11:22:38.962Z,58.13
2018-07-31T11:25:08.856Z,56.63
2018-07-31T11:27:38.494Z,58.37
2018-07-31T11:30:08.754Z,58.37
2018-07-31T11:32:38.610Z,56.33
2018-07-31T11:35:08.939Z,55.20
2018-07-31T11:37:38.598Z,56.07
2018-07-31T11:40:08.171Z,55.84
2018-07-31T11:42:37.983Z,56.73
2018-07-31T11:45:07.660Z,57.04
2018-07-31T11:47:37.723Z,56.70
2018-07-31T11:50:07.457Z,57.03
2018-07-31T11:52:37.165Z,56.93
2018-07-31T11:55:06.839Z,54.82
2018-07-31T11:57:36.422Z,54.38
2018-07-31T12:00:08.394Z,53.72
2018-07-31T12:02:38.180Z,55.70
2018-07-31T12:05:09.037Z,56.45
2018-07-31T12:07:38.868Z,54.32
2018-07-31T12:10:08.812Z,54.51
2018-07-31T12:12:38.493Z,55.03
2018-07-31T12:15:08.355Z,53.86
2018-07-31T12:17:38.089Z,53.63
2018-07-31T12:20:07.918Z,54.85
2018-07-31T12:22:37.636Z,54.79
2018-07-31T12:25:07.703Z,54.74
2018-07-31T12:27:37.432Z,53.23
2018-07-31T12:30:09.538Z,54.05
2018-07-31T12:32:40.644Z,54.45
2018-07-31T12:35:10.939Z,52.58
2018-07-31T12:37:41.014Z,54.61
2018-07-31T12:40:10.807Z,55.56
2018-07-31T12:42:40.847Z,56.25
2018-07-31T12:45:10.843Z,56.94
2018-07-31T12:47:40.565Z,56.84
2018-07-31T12:50:10.848Z,57.12
2018-07-31T12:52:40.603Z,60.94
2018-07-31T12:55:10.848Z,63.39
2018-07-31T12:57:40.606Z,65.23
2018-07-31T13:00:10.396Z,64.12
2018-07-31T13:02:40.744Z,65.53
2018-07-31T13:05:10.416Z,63.80
2018-07-31T13:07:40.270Z,62.52
2018-07-31T13:10:10.479Z,63.24
2018-07-31T13:12:40.330Z,60.53
2018-07-31T13:15:10.164Z,59.25
2018-07-31T13:17:40.051Z,58.52
2018-07-31T13:20:09.749Z,56.43
2018-07-31T13:22:39.421Z,57.23
2018-07-31T13:25:09.120Z,57.21
2018-07-31T13:27:38.909Z,56.65
2018-07-31T13:30:09.071Z,57.53
2018-07-31T13:32:38.702Z,56.79
2018-07-31T13:35:08.580Z,57.25
2018-07-31T13:37:38.475Z,56.57
2018-07-31T13:40:08.848Z,56.64
2018-07-31T13:42:38.538Z,57.04
2018-07-31T13:45:08.449Z,57.08
2018-07-31T13:47:38.243Z,56.06
2018-07-31T13:50:07.841Z,55.32
2018-07-31T13:52:37.786Z,56.76
2018-07-31T13:55:07.609Z,58.35
2018-07-31T13:57:37.452Z,58.84
2018-07-31T14:00:07.368Z,58.50
2018-07-31T14:02:37.128Z,58.24
2018-07-31T14:05:06.868Z,59.27
2018-07-31T14:07:36.582Z,58.65
2018-07-31T14:10:06.562Z,57.80
2018-07-31T14:12:36.492Z,58.96
2018-07-31T14:15:06.338Z,58.45
2018-07-31T14:17:36.255Z,59.19
2018-07-31T14:20:06.162Z,59.44
2018-07-31T14:22:35.999Z,59.97
2018-07-31T14:25:06.045Z,60.39
2018-07-31T14:27:36.471Z,59.78
2018-07-31T14:30:06.649Z,60.38
2018-07-31T14:32:36.743Z,59.38
2018-07-31T14:35:06.427Z,60.94
2018-07-31T14:37:36.222Z,62.67
2018-07-31T14:40:06.115Z,62.80
2018-07-31T14:42:35.819Z,63.03
2018-07-31T14:45:05.934Z,63.19
2018-07-31T14:47:35.488Z,62.44
2018-07-31T14:50:05.683Z,62.93
2018-07-31T14:52:35.314Z,62.12
2018-07-31T14:55:05.163Z,64.93
2018-07-31T14:57:35.126Z,66.51
2018-07-31T15:00:05.473Z,65.21
2018-07-31T15:02:35.983Z,64.74
2018-07-31T15:05:05.881Z,63.54
2018-07-31T15:07:35.602Z,64.95
2018-07-31T15:10:05.891Z,64.86
2018-07-31T15:12:35.860Z,64.50
2018-07-31T15:15:06.155Z,65.23
2018-07-31T15:17:36.167Z,65.28
2018-07-31T15:20:06.003Z,67.40
2018-07-31T15:22:35.726Z,67.19
2018-07-31T15:25:05.962Z,66.03
2018-07-31T15:27:35.740Z,67.80
2018-07-31T15:30:06.586Z,67.42
2018-07-31T15:32:36.257Z,67.64
2018-07-31T15:35:05.954Z,68.29
2018-07-31T15:37:35.925Z,66.66
2018-07-31T15:40:05.783Z,65.87
2018-07-31T15:42:35.602Z,65.40
2018-07-31T15:45:05.510Z,65.48
2018-07-31T15:47:35.556Z,65.19
2018-07-31T15:50:05.884Z,65.62
2018-07-31T15:52:35.528Z,67.20
2018-07-31T15:55:05.845Z,66.58
2018-07-31T15:57:35.948Z,66.35
2018-07-31T16:00:08.559Z,67.23
2018-07-31T16:02:38.444Z,66.42
2018-07-31T16:05:09.366Z,68.04
2018-07-31T16:07:39.087Z,66.51
2018-07-31T16:10:08.615Z,66.73
2018-07-31T16:12:38.335Z,67.08
2018-07-31T16:15:08.052Z,65.05
2018-07-31T16:17:37.749Z,64.93
2018-07-31T16:20:07.541Z,64.46
2018-07-31T16:22:37.183Z,65.30
2018-07-31T16:25:07.118Z,65.90
2018-07-31T16:27:36.908Z,66.62
2018-07-31T16:30:07.416Z,68.21
2018-07-31T16:32:37.208Z,67.41
2018-07-31T16:35:07.261Z,66.44
2018-07-31T16:37:36.938Z,69.64
2018-07-31T16:40:06.741Z,69.54
2018-07-31T16:42:36.898Z,68.28
2018-07-31T16:45:06.808Z,68.07
2018-07-31T16:47:36.635Z,67.67
2018-07-31T16:50:06.634Z,67.39
2018-07-31T16:52:36.406Z,67.07
2018-07-31T16:55:06.354Z,67.53
2018-07-31T16:57:36.259Z,66.46
2018-07-31T17:00:07.224Z,66.88
2018-07-31T17:02:37.155Z,66.24
2018-07-31T17:05:07.003Z,66.24
2018-07-31T17:07:36.848Z,66.00
2018-07-31T17:10:13.373Z,65.47
2018-07-31T17:12:42.962Z,66.63
2018-07-31T17:15:12.691Z,65.27
2018-07-31T17:17:42.357Z,65.92
2018-07-31T17:20:12.087Z,66.75
2018-07-31T17:22:41.775Z,67.78
2018-07-31T17:25:11.474Z,69.51
2018-07-31T17:27:41.622Z,69.23
2018-07-31T17:30:11.486Z,68.89
2018-07-31T17:32:41.258Z,69.06
2018-07-31T17:35:11.176Z,69.45
2018-07-31T17:37:47.165Z,69.77
2018-07-31T17:40:16.741Z,70.39
2018-07-31T17:42:46.450Z,70.44
2018-07-31T17:45:16.215Z,69.99
2018-07-31T17:47:45.987Z,69.99
2018-07-31T17:50:15.597Z,71.01
2018-07-31T17:52:45.550Z,70.61
2018-07-31T17:55:15.286Z,71.50
2018-07-31T17:57:45.177Z,70.94
2018-07-31T18:00:14.835Z,72.26
2018-07-31T18:02:45.646Z,71.86
2018-07-31T18:05:15.293Z,71.42
2018-07-31T18:07:45.408Z,71.10
2018-07-31T18:10:15.258Z,73.62
2018-07-31T18:12:44.868Z,74.65
2018-07-31T18:15:14.550Z,74.23
2018-07-31T18:17:44.323Z,72.37
2018-07-31T18:20:13.964Z,71.89
2018-07-31T18:22:43.768Z,72.37
2018-07-31T18:25:13.559Z,73.12
2018-07-31T18:27:43.282Z,74.13
2018-07-31T18:30:12.972Z,74.74
2018-07-31T18:32:42.716Z,73.36
2018-07-31T18:35:12.699Z,74.17
2018-07-31T18:37:42.196Z,74.18
2018-07-31T18:40:11.867Z,73.29
2018-07-31T18:42:41.595Z,73.30
2018-07-31T18:45:11.178Z,72.34
2018-07-31T18:47:40.835Z,72.00
2018-07-31T19:01:58.039Z,71.55
2018-07-31T19:04:27.854Z,72.43
2018-07-31T19:06:57.445Z,72.74
2018-07-31T19:09:27.241Z,73.01
2018-07-31T19:11:56.912Z,72.92
2018-07-31T19:14:26.508Z,72.74
2018-07-31T19:16:56.466Z,72.54
2018-07-31T19:19:26.371Z,72.54
2018-07-31T19:21:56.097Z,73.14
2018-07-31T19:24:25.796Z,73.80
2018-07-31T19:26:55.388Z,73.01
2018-07-31T19:29:25.657Z,72.12
2018-07-31T19:31:56.296Z,71.80
2018-07-31T19:34:26.656Z,71.73
2018-07-31T19:36:57.099Z,72.25
2018-07-31T19:39:27.222Z,72.55
2018-07-31T19:41:57.246Z,72.04
2018-07-31T19:44:27.719Z,72.86
2018-07-31T19:46:57.590Z,72.14
2018-07-31T19:49:28.988Z,72.11
2018-07-31T19:51:58.636Z,72.69
2018-07-31T19:54:28.619Z,73.54
2018-07-31T19:56:58.905Z,73.14
2018-07-31T19:59:29.120Z,73.82
2018-07-31T20:01:58.931Z,74.05
2018-07-31T20:04:28.658Z,74.20
2018-07-31T20:06:58.370Z,73.89
2018-07-31T20:09:29.174Z,74.12
2018-07-31T20:11:59.519Z,73.56
2018-07-31T20:14:29.153Z,74.48
2018-07-31T20:16:58.919Z,74.77
2018-07-31T20:19:28.931Z,74.89
2018-07-31T20:21:58.567Z,75.08
2018-07-31T20:24:28.424Z,74.86
2018-07-31T20:26:58.406Z,74.89
2018-07-31T20:29:28.101Z,75.02
2018-07-31T20:31:57.963Z,74.25
2018-07-31T20:34:27.835Z,74.48
2018-07-31T20:36:57.780Z,75.35
2018-07-31T20:39:27.341Z,74.60
2018-07-31T20:41:57.676Z,74.20
2018-07-31T20:44:27.431Z,74.13
2018-07-31T20:46:58.464Z,74.71
2018-07-31T20:49:28.188Z,74.78
2018-07-31T20:51:57.976Z,74.55
2018-07-31T20:54:27.855Z,74.98
2018-07-31T20:56:57.570Z,74.91
2018-07-31T20:59:27.809Z,75.85
2018-07-31T21:01:57.543Z,75.37
2018-07-31T21:04:27.572Z,74.07
2018-07-31T21:06:57.307Z,73.83
2018-07-31T21:09:27.084Z,73.30
2018-07-31T21:11:56.998Z,73.13
2018-07-31T21:14:26.815Z,72.96
2018-07-31T21:16:56.626Z,72.47
2018-07-31T21:19:26.845Z,73.41
2018-07-31T21:21:56.424Z,73.10
2018-07-31T21:24:26.073Z,73.27
2018-07-31T21:26:55.950Z,72.80
2018-07-31T21:29:25.737Z,72.39
2018-07-31T21:31:55.338Z,72.28
2018-07-31T21:34:25.060Z,71.64
2018-07-31T21:36:54.650Z,72.46
2018-07-31T21:39:24.470Z,72.20
2018-07-31T21:41:54.081Z,71.75
2018-07-31T21:44:23.947Z,72.50
2018-07-31T21:46:53.902Z,72.14
2018-07-31T21:49:23.529Z,71.56
2018-07-31T21:51:53.229Z,73.07
2018-07-31T21:54:22.889Z,72.32
2018-07-31T21:56:52.515Z,73.39
2018-07-31T21:59:22.327Z,73.21
2018-07-31T22:01:52.032Z,73.32
2018-07-31T22:04:21.635Z,72.76
2018-07-31T22:06:51.562Z,72.39
2018-07-31T22:09:26.247Z,72.69
2018-07-31T22:11:56.345Z,73.17
2018-07-31T22:14:25.950Z,72.95
2018-07-31T22:16:56.028Z,72.90
2018-07-31T22:19:25.719Z,72.29
2018-07-31T22:21:55.326Z,71.64
2018-07-31T22:24:24.942Z,71.50
2018-07-31T22:26:54.536Z,72.55
2018-07-31T22:29:24.327Z,72.91
2018-07-31T22:31:53.878Z,72.69
2018-07-31T22:34:23.571Z,73.08
2018-07-31T22:36:53.194Z,73.64
2018-07-31T22:39:23.000Z,73.71
2018-07-31T22:41:52.872Z,73.39
2018-07-31T22:44:22.534Z,73.08
2018-07-31T22:46:52.276Z,72.65
2018-07-31T22:49:22.041Z,72.52
2018-07-31T22:51:51.743Z,73.09
2018-07-31T22:54:21.534Z,72.69
2018-07-31T22:56:51.275Z,73.41
2018-07-31T22:59:21.282Z,73.24
2018-07-31T23:01:50.955Z,72.64
2018-07-31T23:04:20.520Z,72.49
2018-07-31T23:06:50.198Z,72.31
2018-07-31T23:09:19.926Z,73.02
2018-07-31T23:11:49.470Z,72.32
2018-07-31T23:14:19.159Z,72.35
2018-07-31T23:16:48.895Z,72.59
2018-07-31T23:19:18.610Z,72.82
2018-07-31T23:21:48.379Z,72.97
2018-07-31T23:24:18.124Z,72.89
2018-07-31T23:26:47.921Z,73.77
2018-07-31T23:29:17.667Z,74.37
2018-07-31T23:31:47.388Z,75.99
2018-07-31T23:34:17.895Z,76.12
2018-07-31T23:36:47.602Z,78.38
2018-07-31T23:39:17.244Z,77.33
2018-07-31T23:41:47.025Z,77.39
2018-07-31T23:44:16.547Z,76.25
2018-07-31T23:46:46.244Z,74.75
2018-07-31T23:49:16.040Z,74.11
2018-07-31T23:51:45.678Z,73.82
2018-07-31T23:54:15.378Z,73.93
2018-07-31T23:56:45.144Z,74.42
2018-07-31T23:59:15.255Z,74.12
